createdAt,value
2017-08-01T00:04:33.225Z,0
2017-08-01T00:14:47.289Z,0
2017-08-01T00:25:01.487Z,0
2017-08-01T00:35:17.157Z,0
2017-08-01T00:45:32.206Z,0
2017-08-01T00:55:47.877Z,0
2017-08-01T01:06:03.629Z,0
2017-08-01T01:16:19.158Z,0
2017-08-01T01:26:33.439Z,0
2017-08-01T01:36:47.486Z,0
2017-08-01T01:47:02.765Z,0
2017-08-01T01:57:18.188Z,0
2017-08-01T02:07:32.478Z,0
2017-08-01T02:17:46.991Z,0
2017-08-01T02:28:01.445Z,0
2017-08-01T02:38:15.549Z,0
2017-08-01T02:48:30.052Z,0
2017-08-01T02:58:44.526Z,0
2017-08-01T03:08:58.917Z,0
2017-08-01T03:19:13.680Z,4
2017-08-01T03:29:28.175Z,20
2017-08-01T03:39:41.994Z,60
2017-08-01T03:49:56.395Z,164
2017-08-01T04:00:11.720Z,372
2017-08-01T04:10:27.151Z,1224
2017-08-01T04:20:41.235Z,1648
2017-08-01T04:30:55.650Z,5064
2017-08-01T04:41:10.852Z,7528
2017-08-01T04:51:26.056Z,5088
2017-08-01T05:01:40.031Z,6248
2017-08-01T05:11:55.030Z,7320
2017-08-01T05:22:10.401Z,8344
2017-08-01T05:32:25.226Z,6516
2017-08-01T05:42:40.335Z,6356
2017-08-01T05:52:54.494Z,10464
2017-08-01T06:03:08.542Z,5892
2017-08-01T06:13:23.398Z,7852
2017-08-01T06:23:38.415Z,8120
2017-08-01T06:33:53.557Z,28320
2017-08-01T06:44:07.555Z,17184
2017-08-01T06:54:23.409Z,19680
2017-08-01T07:04:37.530Z,32896
2017-08-01T07:14:52.645Z,34400
2017-08-01T07:25:06.573Z,42816
2017-08-01T07:35:22.000Z,37152
2017-08-01T07:45:36.950Z,22816
2017-08-01T07:55:51.961Z,50720
2017-08-01T08:06:06.376Z,31008
2017-08-01T08:16:21.664Z,26848
2017-08-01T08:26:37.026Z,28704
2017-08-01T08:36:52.707Z,36032
2017-08-01T08:47:07.888Z,36192
2017-08-01T08:57:23.103Z,36544
2017-08-01T09:07:38.808Z,39904
2017-08-01T09:17:53.958Z,30272
2017-08-01T09:28:08.519Z,30304
2017-08-01T09:38:23.007Z,24896
2017-08-01T09:48:37.399Z,19968
2017-08-01T09:58:52.441Z,29248
2017-08-01T10:09:07.408Z,28640
2017-08-01T10:19:21.672Z,23968
2017-08-01T10:29:37.543Z,33280
2017-08-01T10:39:51.744Z,65728
2017-08-01T10:50:05.974Z,83264
2017-08-01T11:00:21.551Z,36064
2017-08-01T11:10:37.112Z,48320
2017-08-01T11:20:52.474Z,55392
2017-08-01T11:31:07.737Z,34656
2017-08-01T11:41:23.352Z,20256
2017-08-01T11:51:38.877Z,17152
2017-08-01T12:01:54.234Z,12848
2017-08-01T12:12:08.316Z,20352
2017-08-01T12:22:22.893Z,30304
2017-08-01T12:32:38.554Z,43168
2017-08-01T12:42:53.937Z,29920
2017-08-01T12:53:09.804Z,10732
2017-08-01T13:03:25.209Z,11040
2017-08-01T13:13:40.384Z,15280
2017-08-01T13:23:56.161Z,16824
2017-08-01T13:34:11.980Z,15108
2017-08-01T13:44:26.375Z,10372
2017-08-01T13:54:40.289Z,33216
2017-08-01T14:04:55.970Z,34944
2017-08-01T14:15:10.122Z,22400
2017-08-01T14:25:24.072Z,24736
2017-08-01T14:35:38.465Z,16416
2017-08-01T14:45:53.751Z,20640
2017-08-01T14:56:08.665Z,19840
2017-08-01T15:06:22.754Z,18304
2017-08-01T15:16:37.270Z,18944
2017-08-01T15:26:52.094Z,15672
2017-08-01T15:37:06.170Z,12456
2017-08-01T15:47:20.470Z,17472
2017-08-01T15:57:34.378Z,12856
2017-08-01T16:07:49.439Z,14224
2017-08-01T16:18:03.988Z,9292
2017-08-01T16:28:18.067Z,5360
2017-08-01T16:38:33.493Z,3840
2017-08-01T16:48:48.670Z,3796
2017-08-01T16:59:04.254Z,7060
2017-08-01T17:09:19.371Z,7200
2017-08-01T17:19:34.314Z,3060
2017-08-01T17:29:48.883Z,4912
2017-08-01T17:40:03.483Z,4360
2017-08-01T17:50:18.335Z,2296
2017-08-01T18:00:34.102Z,2036
2017-08-01T18:10:49.663Z,2912
2017-08-01T18:21:04.686Z,4564
2017-08-01T18:31:19.344Z,5676
2017-08-01T18:41:34.377Z,3024
2017-08-01T18:51:49.553Z,1576
2017-08-01T19:02:03.696Z,1040
2017-08-01T19:12:18.489Z,528
2017-08-01T19:22:33.281Z,236
2017-08-01T19:32:47.155Z,84
2017-08-01T19:43:01.370Z,24
2017-08-01T19:53:15.330Z,4
2017-08-01T20:03:30.399Z,0
2017-08-01T20:13:44.509Z,0
2017-08-01T20:23:59.117Z,0
2017-08-01T20:34:13.682Z,0
2017-08-01T20:44:28.792Z,0
2017-08-01T20:54:43.561Z,0
2017-08-01T21:04:58.603Z,0
2017-08-01T21:15:12.556Z,0
2017-08-01T21:25:26.897Z,0
2017-08-01T21:35:41.815Z,0
2017-08-01T21:45:57.334Z,0
2017-08-01T21:56:12.977Z,0
2017-08-01T22:06:27.775Z,0
2017-08-01T22:16:42.780Z,0
2017-08-01T22:26:58.119Z,0
2017-08-01T22:37:13.492Z,0
2017-08-01T22:47:28.091Z,0
2017-08-01T22:57:42.957Z,0
2017-08-01T23:07:58.189Z,0
2017-08-01T23:18:13.645Z,0
2017-08-01T23:28:28.206Z,0
2017-08-01T23:38:43.926Z,0
2017-08-01T23:48:57.983Z,0
2017-08-01T23:59:11.808Z,0
